sensor_id;sensor_type;location;lat;lon;timestamp;P1;durP1;ratioP1;P2;durP2;ratioP2
71296;SDS011;59082;50.658;4.608;2023-12-07T06:32:49;14.15;;;8.43;;
71296;SDS011;59082;50.658;4.608;2023-12-07T06:35:14;18.53;;;9.40;;
71296;SDS011;59082;50.658;4.608;2023-12-07T06:37:40;15.98;;;9.27;;
71296;SDS011;59082;50.658;4.608;2023-12-07T06:40:11;15.57;;;9.30;;
71296;SDS011;59082;50.658;4.608;2023-12-07T06:42:36;12.68;;;7.55;;
71296;SDS011;59082;50.658;4.608;2023-12-07T06:45:02;15.03;;;8.30;;
71296;SDS011;59082;50.658;4.608;2023-12-07T06:47:27;17.80;;;7.93;;
71296;SDS011;59082;50.658;4.608;2023-12-07T06:49:53;16.55;;;8.30;;
71296;SDS011;59082;50.658;4.608;2023-12-07T06:52:18;17.47;;;8.43;;
71296;SDS011;59082;50.658;4.608;2023-12-07T06:54:44;14.93;;;8.23;;
71296;SDS011;59082;50.658;4.608;2023-12-07T06:57:09;18.35;;;8.73;;
71296;SDS011;59082;50.658;4.608;2023-12-07T06:59:35;19.10;;;9.17;;
71296;SDS011;59082;50.658;4.608;2023-12-07T07:02:00;16.60;;;8.53;;
71296;SDS011;59082;50.658;4.608;2023-12-07T07:04:28;23.38;;;10.18;;
71296;SDS011;59082;50.658;4.608;2023-12-07T07:06:55;13.37;;;7.87;;
71296;SDS011;59082;50.658;4.608;2023-12-07T07:09:20;16.98;;;8.32;;
71296;SDS011;59082;50.658;4.608;2023-12-07T07:11:47;19.37;;;8.87;;
71296;SDS011;59082;50.658;4.608;2023-12-07T07:14:12;15.40;;;9.02;;
71296;SDS011;59082;50.658;4.608;2023-12-07T07:16:38;17.77;;;9.13;;
71296;SDS011;59082;50.658;4.608;2023-12-07T07:19:03;13.20;;;8.73;;
71296;SDS011;59082;50.658;4.608;2023-12-07T07:21:28;14.23;;;9.50;;
71296;SDS011;59082;50.658;4.608;2023-12-07T07:23:54;19.38;;;8.40;;
71296;SDS011;59082;50.658;4.608;2023-12-07T07:26:19;16.47;;;7.93;;
71296;SDS011;59082;50.658;4.608;2023-12-07T07:28:45;15.53;;;8.90;;
71296;SDS011;59082;50.658;4.608;2023-12-07T07:31:10;16.90;;;9.50;;
71296;SDS011;59082;50.658;4.608;2023-12-07T07:33:35;18.10;;;8.60;;
71296;SDS011;59082;50.658;4.608;2023-12-07T07:36:01;20.58;;;8.45;;
71296;SDS011;59082;50.658;4.608;2023-12-07T07:38:26;18.53;;;9.60;;
71296;SDS011;59082;50.658;4.608;2023-12-07T07:40:52;15.60;;;9.50;;
71296;SDS011;59082;50.658;4.608;2023-12-07T07:43:17;17.37;;;8.90;;
71296;SDS011;59082;50.658;4.608;2023-12-07T07:45:43;13.27;;;7.57;;
71296;SDS011;59082;50.658;4.608;2023-12-07T07:48:08;17.67;;;7.83;;
71296;SDS011;59082;50.658;4.608;2023-12-07T07:50:34;15.83;;;8.43;;
71296;SDS011;59082;50.658;4.608;2023-12-07T07:53:02;15.20;;;8.60;;
71296;SDS011;59082;50.658;4.608;2023-12-07T07:55:27;17.17;;;9.65;;
71296;SDS011;59082;50.658;4.608;2023-12-07T07:57:52;15.50;;;7.67;;
71296;SDS011;59082;50.658;4.608;2023-12-07T08:00:19;13.75;;;7.85;;
71296;SDS011;59082;50.658;4.608;2023-12-07T08:02:44;14.33;;;8.13;;
71296;SDS011;59082;50.658;4.608;2023-12-07T08:05:10;17.07;;;8.60;;
71296;SDS011;59082;50.658;4.608;2023-12-07T08:07:36;20.67;;;9.88;;
71296;SDS011;59082;50.658;4.608;2023-12-07T08:10:02;16.43;;;8.43;;
71296;SDS011;59082;50.658;4.608;2023-12-07T08:12:28;15.80;;;9.93;;
71296;SDS011;59082;50.658;4.608;2023-12-07T08:14:54;17.90;;;9.37;;
71296;SDS011;59082;50.658;4.608;2023-12-07T08:17:19;16.47;;;8.63;;
71296;SDS011;59082;50.658;4.608;2023-12-07T08:19:46;17.65;;;8.40;;
71296;SDS011;59082;50.658;4.608;2023-12-07T08:22:12;14.30;;;8.60;;
71296;SDS011;59082;50.658;4.608;2023-12-07T08:24:41;22.97;;;9.07;;
71296;SDS011;59082;50.658;4.608;2023-12-07T08:27:06;19.10;;;9.30;;
71296;SDS011;59082;50.658;4.608;2023-12-07T08:29:31;17.57;;;9.20;;
71296;SDS011;59082;50.658;4.608;2023-12-07T08:31:57;15.73;;;8.38;;
71296;SDS011;59082;50.658;4.608;2023-12-07T08:34:22;13.20;;;8.07;;
71296;SDS011;59082;50.658;4.608;2023-12-07T08:36:49;16.30;;;8.82;;
71296;SDS011;59082;50.658;4.608;2023-12-07T08:39:15;16.03;;;8.80;;
71296;SDS011;59082;50.658;4.608;2023-12-07T08:41:40;21.07;;;10.50;;
71296;SDS011;59082;50.658;4.608;2023-12-07T08:44:05;16.73;;;9.73;;
71296;SDS011;59082;50.658;4.608;2023-12-07T08:46:31;14.95;;;8.43;;
71296;SDS011;59082;50.658;4.608;2023-12-07T08:48:56;16.93;;;9.97;;
71296;SDS011;59082;50.658;4.608;2023-12-07T08:51:22;16.40;;;8.87;;
71296;SDS011;59082;50.658;4.608;2023-12-07T08:53:47;16.15;;;8.68;;
71296;SDS011;59082;50.658;4.608;2023-12-07T08:56:13;15.30;;;9.00;;
71296;SDS011;59082;50.658;4.608;2023-12-07T08:58:39;16.83;;;9.23;;
71296;SDS011;59082;50.658;4.608;2023-12-07T09:01:05;20.00;;;9.57;;
71296;SDS011;59082;50.658;4.608;2023-12-07T09:03:30;16.53;;;9.77;;
71296;SDS011;59082;50.658;4.608;2023-12-07T09:05:57;17.40;;;10.15;;
71296;SDS011;59082;50.658;4.608;2023-12-07T09:08:22;18.67;;;9.47;;
71296;SDS011;59082;50.658;4.608;2023-12-07T09:10:48;14.50;;;8.45;;
71296;SDS011;59082;50.658;4.608;2023-12-07T09:13:19;14.13;;;8.13;;
71296;SDS011;59082;50.658;4.608;2023-12-07T09:15:44;12.77;;;7.90;;
71296;SDS011;59082;50.658;4.608;2023-12-07T09:18:10;16.87;;;8.77;;
71296;SDS011;59082;50.658;4.608;2023-12-07T09:20:41;15.23;;;8.65;;
71296;SDS011;59082;50.658;4.608;2023-12-07T09:23:14;17.02;;;9.05;;
71296;SDS011;59082;50.658;4.608;2023-12-07T09:25:42;17.58;;;9.63;;
71296;SDS011;59082;50.658;4.608;2023-12-07T09:28:07;18.53;;;9.73;;
71296;SDS011;59082;50.658;4.608;2023-12-07T09:30:33;13.38;;;8.57;;
71296;SDS011;59082;50.658;4.608;2023-12-07T09:32:59;16.57;;;9.70;;
71296;SDS011;59082;50.658;4.608;2023-12-07T09:35:24;14.85;;;9.35;;
71296;SDS011;59082;50.658;4.608;2023-12-07T09:37:50;15.70;;;8.73;;
71296;SDS011;59082;50.658;4.608;2023-12-07T09:40:16;15.33;;;8.73;;
71296;SDS011;59082;50.658;4.608;2023-12-07T09:42:42;15.95;;;8.63;;
71296;SDS011;59082;50.658;4.608;2023-12-07T09:45:08;13.30;;;8.70;;
71296;SDS011;59082;50.658;4.608;2023-12-07T09:47:34;15.45;;;8.57;;
71296;SDS011;59082;50.658;4.608;2023-12-07T09:50:01;15.65;;;9.10;;
71296;SDS011;59082;50.658;4.608;2023-12-07T09:52:27;15.20;;;8.10;;
71296;SDS011;59082;50.658;4.608;2023-12-07T09:54:52;10.95;;;6.90;;
71296;SDS011;59082;50.658;4.608;2023-12-07T09:57:19;15.87;;;9.30;;
71296;SDS011;59082;50.658;4.608;2023-12-07T09:59:44;18.15;;;8.85;;
71296;SDS011;59082;50.658;4.608;2023-12-07T10:02:10;12.30;;;8.90;;
71296;SDS011;59082;50.658;4.608;2023-12-07T10:04:35;13.63;;;8.80;;
71296;SDS011;59082;50.658;4.608;2023-12-07T10:07:01;13.57;;;8.40;;
71296;SDS011;59082;50.658;4.608;2023-12-07T10:09:27;11.47;;;7.83;;
71296;SDS011;59082;50.658;4.608;2023-12-07T10:12:05;13.53;;;7.97;;
71296;SDS011;59082;50.658;4.608;2023-12-07T10:14:30;10.55;;;7.35;;
71296;SDS011;59082;50.658;4.608;2023-12-07T10:16:56;12.20;;;8.45;;
71296;SDS011;59082;50.658;4.608;2023-12-07T10:19:22;12.10;;;7.50;;
71296;SDS011;59082;50.658;4.608;2023-12-07T10:21:48;9.48;;;7.45;;
71296;SDS011;59082;50.658;4.608;2023-12-07T10:24:15;12.93;;;8.27;;
71296;SDS011;59082;50.658;4.608;2023-12-07T10:26:40;9.98;;;7.05;;
71296;SDS011;59082;50.658;4.608;2023-12-07T10:29:06;10.80;;;6.97;;
71296;SDS011;59082;50.658;4.608;2023-12-07T10:31:32;12.47;;;7.87;;
71296;SDS011;59082;50.658;4.608;2023-12-07T10:33:58;9.98;;;7.03;;
71296;SDS011;59082;50.658;4.608;2023-12-07T10:36:23;11.95;;;6.65;;
71296;SDS011;59082;50.658;4.608;2023-12-07T10:38:49;10.10;;;6.63;;
71296;SDS011;59082;50.658;4.608;2023-12-07T10:41:18;10.80;;;6.68;;
71296;SDS011;59082;50.658;4.608;2023-12-07T10:43:43;11.30;;;7.13;;
71296;SDS011;59082;50.658;4.608;2023-12-07T10:46:10;12.48;;;7.13;;
71296;SDS011;59082;50.658;4.608;2023-12-07T10:48:40;13.45;;;7.15;;
71296;SDS011;59082;50.658;4.608;2023-12-07T10:51:07;8.65;;;6.43;;
71296;SDS011;59082;50.658;4.608;2023-12-07T10:53:42;9.13;;;5.88;;
71296;SDS011;59082;50.658;4.608;2023-12-07T10:56:16;10.27;;;5.83;;
71296;SDS011;59082;50.658;4.608;2023-12-07T10:58:41;7.90;;;5.35;;
71296;SDS011;59082;50.658;4.608;2023-12-07T11:01:07;10.40;;;5.63;;
71296;SDS011;59082;50.658;4.608;2023-12-07T11:03:34;8.45;;;5.28;;
71296;SDS011;59082;50.658;4.608;2023-12-07T11:06:00;8.00;;;5.37;;
71296;SDS011;59082;50.658;4.608;2023-12-07T11:08:40;7.93;;;5.28;;
71296;SDS011;59082;50.658;4.608;2023-12-07T11:11:08;9.07;;;5.70;;
71296;SDS011;59082;50.658;4.608;2023-12-07T11:13:36;9.80;;;5.65;;
71296;SDS011;59082;50.658;4.608;2023-12-07T11:16:02;10.68;;;6.05;;
71296;SDS011;59082;50.658;4.608;2023-12-07T11:18:28;7.07;;;5.07;;
71296;SDS011;59082;50.658;4.608;2023-12-07T11:20:54;7.55;;;4.60;;
71296;SDS011;59082;50.658;4.608;2023-12-07T11:23:20;9.52;;;5.43;;
71296;SDS011;59082;50.658;4.608;2023-12-07T11:25:46;7.57;;;5.37;;
71296;SDS011;59082;50.658;4.608;2023-12-07T11:28:12;9.20;;;5.15;;
71296;SDS011;59082;50.658;4.608;2023-12-07T11:30:37;6.33;;;4.50;;
71296;SDS011;59082;50.658;4.608;2023-12-07T11:33:06;7.15;;;4.28;;
71296;SDS011;59082;50.658;4.608;2023-12-07T11:35:31;5.33;;;4.83;;
71296;SDS011;59082;50.658;4.608;2023-12-07T11:40:25;4.68;;;4.18;;
71296;SDS011;59082;50.658;4.608;2023-12-07T11:42:52;6.90;;;4.53;;
71296;SDS011;59082;50.658;4.608;2023-12-07T11:45:35;7.38;;;4.13;;
71296;SDS011;59082;50.658;4.608;2023-12-07T11:48:10;6.00;;;4.07;;
71296;SDS011;59082;50.658;4.608;2023-12-07T11:50:36;6.70;;;4.47;;
71296;SDS011;59082;50.658;4.608;2023-12-07T11:53:21;6.20;;;3.85;;
71296;SDS011;59082;50.658;4.608;2023-12-07T11:55:48;4.80;;;3.80;;
71296;SDS011;59082;50.658;4.608;2023-12-07T11:58:13;8.27;;;4.50;;
71296;SDS011;59082;50.658;4.608;2023-12-07T12:00:39;7.50;;;4.50;;
71296;SDS011;59082;50.658;4.608;2023-12-07T12:03:05;5.35;;;3.50;;
71296;SDS011;59082;50.658;4.608;2023-12-07T12:05:30;4.82;;;3.78;;
71296;SDS011;59082;50.658;4.608;2023-12-07T12:07:56;7.13;;;4.37;;
71296;SDS011;59082;50.658;4.608;2023-12-07T12:10:22;5.80;;;4.35;;
71296;SDS011;59082;50.658;4.608;2023-12-07T12:12:50;5.67;;;4.13;;
71296;SDS011;59082;50.658;4.608;2023-12-07T12:15:16;5.65;;;3.47;;
71296;SDS011;59082;50.658;4.608;2023-12-07T12:17:41;7.27;;;4.10;;
71296;SDS011;59082;50.658;4.608;2023-12-07T12:20:08;6.75;;;3.78;;
71296;SDS011;59082;50.658;4.608;2023-12-07T12:22:36;7.00;;;3.60;;
71296;SDS011;59082;50.658;4.608;2023-12-07T12:25:01;7.47;;;3.80;;
71296;SDS011;59082;50.658;4.608;2023-12-07T12:27:27;4.57;;;3.57;;
71296;SDS011;59082;50.658;4.608;2023-12-07T12:29:52;6.07;;;4.77;;
71296;SDS011;59082;50.658;4.608;2023-12-07T12:32:18;6.60;;;4.07;;
71296;SDS011;59082;50.658;4.608;2023-12-07T12:34:43;5.72;;;4.25;;
71296;SDS011;59082;50.658;4.608;2023-12-07T12:37:09;8.20;;;4.10;;
71296;SDS011;59082;50.658;4.608;2023-12-07T12:39:34;4.63;;;3.47;;
71296;SDS011;59082;50.658;4.608;2023-12-07T12:41:59;5.30;;;4.20;;
71296;SDS011;59082;50.658;4.608;2023-12-07T12:44:26;5.35;;;3.92;;
71296;SDS011;59082;50.658;4.608;2023-12-07T12:46:52;5.20;;;3.65;;
71296;SDS011;59082;50.658;4.608;2023-12-07T12:49:17;5.23;;;4.10;;
71296;SDS011;59082;50.658;4.608;2023-12-07T12:51:44;5.70;;;4.43;;
71296;SDS011;59082;50.658;4.608;2023-12-07T12:54:09;7.75;;;4.30;;
71296;SDS011;59082;50.658;4.608;2023-12-07T12:56:36;6.38;;;3.75;;
71296;SDS011;59082;50.658;4.608;2023-12-07T12:59:02;5.23;;;3.90;;
71296;SDS011;59082;50.658;4.608;2023-12-07T13:01:27;7.07;;;4.63;;
71296;SDS011;59082;50.658;4.608;2023-12-07T13:03:52;5.97;;;4.60;;
71296;SDS011;59082;50.658;4.608;2023-12-07T13:06:18;8.30;;;5.07;;
71296;SDS011;59082;50.658;4.608;2023-12-07T13:08:44;8.93;;;5.10;;
71296;SDS011;59082;50.658;4.608;2023-12-07T13:11:14;6.63;;;5.13;;
71296;SDS011;59082;50.658;4.608;2023-12-07T13:13:40;6.35;;;4.60;;
71296;SDS011;59082;50.658;4.608;2023-12-07T13:16:06;6.28;;;4.20;;
71296;SDS011;59082;50.658;4.608;2023-12-07T13:18:31;7.63;;;4.30;;
71296;SDS011;59082;50.658;4.608;2023-12-07T13:20:57;7.47;;;4.73;;
71296;SDS011;59082;50.658;4.608;2023-12-07T13:23:24;7.20;;;4.97;;
71296;SDS011;59082;50.658;4.608;2023-12-07T13:25:50;6.17;;;4.80;;
71296;SDS011;59082;50.658;4.608;2023-12-07T13:28:15;6.77;;;5.07;;
71296;SDS011;59082;50.658;4.608;2023-12-07T13:30:41;7.40;;;4.57;;
71296;SDS011;59082;50.658;4.608;2023-12-07T13:33:06;6.03;;;4.50;;
71296;SDS011;59082;50.658;4.608;2023-12-07T13:35:34;6.80;;;4.93;;
71296;SDS011;59082;50.658;4.608;2023-12-07T13:37:59;8.82;;;4.80;;
71296;SDS011;59082;50.658;4.608;2023-12-07T13:40:25;4.43;;;3.67;;
71296;SDS011;59082;50.658;4.608;2023-12-07T13:42:52;6.65;;;3.90;;
71296;SDS011;59082;50.658;4.608;2023-12-07T13:45:17;5.67;;;4.40;;
71296;SDS011;59082;50.658;4.608;2023-12-07T13:47:43;6.83;;;4.30;;
71296;SDS011;59082;50.658;4.608;2023-12-07T13:50:09;8.20;;;4.85;;
71296;SDS011;59082;50.658;4.608;2023-12-07T13:52:36;6.25;;;4.72;;
71296;SDS011;59082;50.658;4.608;2023-12-07T13:55:02;9.27;;;5.13;;
71296;SDS011;59082;50.658;4.608;2023-12-07T13:57:27;8.97;;;5.23;;
71296;SDS011;59082;50.658;4.608;2023-12-07T13:59:53;5.63;;;4.03;;
71296;SDS011;59082;50.658;4.608;2023-12-07T14:02:19;7.18;;;4.60;;
71296;SDS011;59082;50.658;4.608;2023-12-07T14:04:45;7.83;;;4.30;;
71296;SDS011;59082;50.658;4.608;2023-12-07T14:07:15;5.15;;;4.25;;
71296;SDS011;59082;50.658;4.608;2023-12-07T14:09:41;7.00;;;5.57;;
71296;SDS011;59082;50.658;4.608;2023-12-07T14:12:08;6.93;;;4.95;;
71296;SDS011;59082;50.658;4.608;2023-12-07T14:14:34;5.82;;;4.57;;
71296;SDS011;59082;50.658;4.608;2023-12-07T14:16:59;6.70;;;5.03;;
71296;SDS011;59082;50.658;4.608;2023-12-07T14:19:25;6.75;;;4.82;;
71296;SDS011;59082;50.658;4.608;2023-12-07T14:21:51;7.10;;;4.67;;
71296;SDS011;59082;50.658;4.608;2023-12-07T14:24:16;8.57;;;4.47;;
71296;SDS011;59082;50.658;4.608;2023-12-07T14:26:43;5.70;;;4.38;;
71296;SDS011;59082;50.658;4.608;2023-12-07T14:29:09;7.30;;;4.90;;
71296;SDS011;59082;50.658;4.608;2023-12-07T14:31:39;7.35;;;4.78;;
71296;SDS011;59082;50.658;4.608;2023-12-07T14:34:05;8.13;;;5.47;;
71296;SDS011;59082;50.658;4.608;2023-12-07T14:36:30;7.23;;;5.10;;
71296;SDS011;59082;50.658;4.608;2023-12-07T14:38:56;7.90;;;4.77;;
71296;SDS011;59082;50.658;4.608;2023-12-07T14:41:21;8.27;;;4.27;;
71296;SDS011;59082;50.658;4.608;2023-12-07T14:43:48;6.32;;;4.47;;
71296;SDS011;59082;50.658;4.608;2023-12-07T14:46:13;6.83;;;4.73;;
71296;SDS011;59082;50.658;4.608;2023-12-07T14:48:39;5.00;;;4.35;;
71296;SDS011;59082;50.658;4.608;2023-12-07T14:51:04;7.27;;;4.70;;
71296;SDS011;59082;50.658;4.608;2023-12-07T14:53:30;6.47;;;4.03;;
71296;SDS011;59082;50.658;4.608;2023-12-07T14:55:55;6.72;;;4.18;;
71296;SDS011;59082;50.658;4.608;2023-12-07T14:58:23;5.67;;;4.40;;
71296;SDS011;59082;50.658;4.608;2023-12-07T15:00:48;4.95;;;3.90;;
71296;SDS011;59082;50.658;4.608;2023-12-07T15:03:14;5.80;;;3.67;;
71296;SDS011;59082;50.658;4.608;2023-12-07T15:05:39;7.95;;;4.78;;
71296;SDS011;59082;50.658;4.608;2023-12-07T15:08:06;6.60;;;4.27;;
71296;SDS011;59082;50.658;4.608;2023-12-07T15:10:31;6.13;;;4.75;;
71296;SDS011;59082;50.658;4.608;2023-12-07T15:12:56;8.83;;;5.07;;
71296;SDS011;59082;50.658;4.608;2023-12-07T15:15:22;9.77;;;4.90;;
71296;SDS011;59082;50.658;4.608;2023-12-07T15:17:47;8.47;;;4.93;;
71296;SDS011;59082;50.658;4.608;2023-12-07T15:20:13;6.80;;;4.47;;
71296;SDS011;59082;50.658;4.608;2023-12-07T15:22:39;6.85;;;3.95;;
71296;SDS011;59082;50.658;4.608;2023-12-07T15:25:05;5.63;;;4.50;;
71296;SDS011;59082;50.658;4.608;2023-12-07T15:27:30;7.53;;;5.00;;
71296;SDS011;59082;50.658;4.608;2023-12-07T15:29:55;8.53;;;3.90;;
71296;SDS011;59082;50.658;4.608;2023-12-07T15:32:21;7.27;;;4.40;;
71296;SDS011;59082;50.658;4.608;2023-12-07T15:34:46;7.72;;;4.18;;
71296;SDS011;59082;50.658;4.608;2023-12-07T15:37:13;5.47;;;4.07;;
71296;SDS011;59082;50.658;4.608;2023-12-07T15:39:39;7.25;;;4.30;;
71296;SDS011;59082;50.658;4.608;2023-12-07T15:42:05;6.85;;;3.53;;
71296;SDS011;59082;50.658;4.608;2023-12-07T15:44:30;7.97;;;4.23;;
71296;SDS011;59082;50.658;4.608;2023-12-07T15:46:55;6.20;;;4.17;;
71296;SDS011;59082;50.658;4.608;2023-12-07T15:49:21;4.80;;;3.97;;
71296;SDS011;59082;50.658;4.608;2023-12-07T15:51:47;5.13;;;3.97;;
71296;SDS011;59082;50.658;4.608;2023-12-07T15:54:13;6.65;;;4.10;;
71296;SDS011;59082;50.658;4.608;2023-12-07T15:56:41;52.83;;;22.27;;
71296;SDS011;59082;50.658;4.608;2023-12-07T15:59:06;36.70;;;15.50;;
71296;SDS011;59082;50.658;4.608;2023-12-07T16:01:31;9.07;;;5.67;;
71296;SDS011;59082;50.658;4.608;2023-12-07T16:03:57;10.30;;;7.13;;
71296;SDS011;59082;50.658;4.608;2023-12-07T16:06:23;11.27;;;6.87;;
71296;SDS011;59082;50.658;4.608;2023-12-07T16:08:48;10.48;;;7.22;;
71296;SDS011;59082;50.658;4.608;2023-12-07T16:11:13;13.27;;;7.00;;
71296;SDS011;59082;50.658;4.608;2023-12-07T16:13:39;9.40;;;6.47;;
71296;SDS011;59082;50.658;4.608;2023-12-07T16:16:04;9.97;;;6.00;;
71296;SDS011;59082;50.658;4.608;2023-12-07T16:18:29;9.07;;;5.70;;
71296;SDS011;59082;50.658;4.608;2023-12-07T16:20:55;9.83;;;6.33;;
71296;SDS011;59082;50.658;4.608;2023-12-07T16:23:20;9.07;;;5.70;;
71296;SDS011;59082;50.658;4.608;2023-12-07T16:25:46;6.47;;;4.80;;
71296;SDS011;59082;50.658;4.608;2023-12-07T16:28:11;5.00;;;3.63;;
71296;SDS011;59082;50.658;4.608;2023-12-07T16:30:36;6.00;;;4.93;;
71296;SDS011;59082;50.658;4.608;2023-12-07T16:33:02;10.17;;;6.77;;
71296;SDS011;59082;50.658;4.608;2023-12-07T16:35:27;14.13;;;7.90;;
71296;SDS011;59082;50.658;4.608;2023-12-07T16:37:53;13.53;;;9.03;;
71296;SDS011;59082;50.658;4.608;2023-12-07T16:40:18;7.77;;;5.07;;
71296;SDS011;59082;50.658;4.608;2023-12-07T16:42:43;8.20;;;4.33;;
71296;SDS011;59082;50.658;4.608;2023-12-07T16:45:09;6.82;;;4.82;;
71296;SDS011;59082;50.658;4.608;2023-12-07T16:47:35;5.90;;;4.73;;
71296;SDS011;59082;50.658;4.608;2023-12-07T16:50:00;7.80;;;5.47;;
71296;SDS011;59082;50.658;4.608;2023-12-07T16:52:26;8.13;;;5.60;;
71296;SDS011;59082;50.658;4.608;2023-12-07T16:54:51;11.03;;;5.67;;
71296;SDS011;59082;50.658;4.608;2023-12-07T16:57:20;7.43;;;4.15;;
71296;SDS011;59082;50.658;4.608;2023-12-07T16:59:46;7.00;;;4.50;;
71296;SDS011;59082;50.658;4.608;2023-12-07T17:02:12;7.87;;;3.83;;
71296;SDS011;59082;50.658;4.608;2023-12-07T17:04:37;7.30;;;4.32;;
71296;SDS011;59082;50.658;4.608;2023-12-07T17:07:03;6.90;;;4.10;;
71296;SDS011;59082;50.658;4.608;2023-12-07T17:09:28;5.80;;;4.23;;
71296;SDS011;59082;50.658;4.608;2023-12-07T17:11:54;8.20;;;3.90;;
71296;SDS011;59082;50.658;4.608;2023-12-07T17:14:19;6.70;;;4.47;;
71296;SDS011;59082;50.658;4.608;2023-12-07T17:16:45;9.83;;;5.00;;
71296;SDS011;59082;50.658;4.608;2023-12-07T17:19:10;9.87;;;4.67;;
71296;SDS011;59082;50.658;4.608;2023-12-07T17:21:36;10.10;;;5.30;;
71296;SDS011;59082;50.658;4.608;2023-12-07T17:24:01;8.02;;;3.97;;
71296;SDS011;59082;50.658;4.608;2023-12-07T17:26:26;8.60;;;5.17;;
71296;SDS011;59082;50.658;4.608;2023-12-07T17:28:52;7.93;;;5.00;;
71296;SDS011;59082;50.658;4.608;2023-12-07T17:31:17;9.73;;;5.30;;
71296;SDS011;59082;50.658;4.608;2023-12-07T17:33:42;6.47;;;4.38;;
71296;SDS011;59082;50.658;4.608;2023-12-07T17:36:08;9.33;;;4.87;;
71296;SDS011;59082;50.658;4.608;2023-12-07T17:38:34;8.40;;;5.47;;
71296;SDS011;59082;50.658;4.608;2023-12-07T17:40:59;12.40;;;5.47;;
71296;SDS011;59082;50.658;4.608;2023-12-07T17:43:24;30.38;;;14.98;;
71296;SDS011;59082;50.658;4.608;2023-12-07T17:45:50;10.13;;;5.40;;
71296;SDS011;59082;50.658;4.608;2023-12-07T17:48:17;7.70;;;4.70;;
71296;SDS011;59082;50.658;4.608;2023-12-07T17:50:42;8.75;;;5.40;;
71296;SDS011;59082;50.658;4.608;2023-12-07T17:53:08;12.57;;;11.27;;
71296;SDS011;59082;50.658;4.608;2023-12-07T17:55:33;10.43;;;6.73;;
71296;SDS011;59082;50.658;4.608;2023-12-07T17:57:58;7.85;;;5.07;;
71296;SDS011;59082;50.658;4.608;2023-12-07T18:00:24;7.10;;;4.27;;
71296;SDS011;59082;50.658;4.608;2023-12-07T18:02:49;9.33;;;5.80;;
71296;SDS011;59082;50.658;4.608;2023-12-07T18:05:15;6.97;;;4.30;;
71296;SDS011;59082;50.658;4.608;2023-12-07T18:07:40;8.07;;;5.37;;
71296;SDS011;59082;50.658;4.608;2023-12-07T18:10:06;9.98;;;4.90;;
71296;SDS011;59082;50.658;4.608;2023-12-07T18:12:31;8.40;;;4.50;;
71296;SDS011;59082;50.658;4.608;2023-12-07T18:14:56;8.83;;;5.07;;
71296;SDS011;59082;50.658;4.608;2023-12-07T18:17:22;8.20;;;4.70;;
71296;SDS011;59082;50.658;4.608;2023-12-07T18:19:47;8.60;;;5.33;;
71296;SDS011;59082;50.658;4.608;2023-12-07T18:22:13;7.88;;;5.00;;
71296;SDS011;59082;50.658;4.608;2023-12-07T18:24:38;8.70;;;4.50;;
71296;SDS011;59082;50.658;4.608;2023-12-07T18:27:05;6.45;;;3.72;;
71296;SDS011;59082;50.658;4.608;2023-12-07T18:29:30;5.63;;;3.60;;
71296;SDS011;59082;50.658;4.608;2023-12-07T18:31:56;6.00;;;4.03;;
71296;SDS011;59082;50.658;4.608;2023-12-07T18:34:21;8.13;;;4.63;;
71296;SDS011;59082;50.658;4.608;2023-12-07T18:36:46;6.67;;;5.10;;
71296;SDS011;59082;50.658;4.608;2023-12-07T18:39:12;8.57;;;4.70;;
71296;SDS011;59082;50.658;4.608;2023-12-07T18:41:37;9.55;;;5.13;;
71296;SDS011;59082;50.658;4.608;2023-12-07T18:44:02;11.27;;;6.63;;
71296;SDS011;59082;50.658;4.608;2023-12-07T18:46:28;5.67;;;4.60;;
71296;SDS011;59082;50.658;4.608;2023-12-07T18:48:54;5.47;;;4.68;;
71296;SDS011;59082;50.658;4.608;2023-12-07T18:51:20;6.20;;;4.40;;
71296;SDS011;59082;50.658;4.608;2023-12-07T18:53:45;8.80;;;5.70;;
71296;SDS011;59082;50.658;4.608;2023-12-07T18:56:10;7.67;;;4.53;;
71296;SDS011;59082;50.658;4.608;2023-12-07T18:58:36;6.73;;;5.07;;
71296;SDS011;59082;50.658;4.608;2023-12-07T19:01:01;5.85;;;4.50;;
71296;SDS011;59082;50.658;4.608;2023-12-07T19:03:28;8.10;;;4.47;;
71296;SDS011;59082;50.658;4.608;2023-12-07T19:05:54;6.57;;;4.43;;
71296;SDS011;59082;50.658;4.608;2023-12-07T19:08:19;6.65;;;5.05;;
71296;SDS011;59082;50.658;4.608;2023-12-07T19:10:45;7.13;;;4.47;;
71296;SDS011;59082;50.658;4.608;2023-12-07T19:13:10;17.00;;;6.80;;
71296;SDS011;59082;50.658;4.608;2023-12-07T19:15:36;22.47;;;8.47;;
71296;SDS011;59082;50.658;4.608;2023-12-07T19:18:02;15.73;;;7.93;;
71296;SDS011;59082;50.658;4.608;2023-12-07T19:20:30;8.50;;;5.30;;
71296;SDS011;59082;50.658;4.608;2023-12-07T19:22:56;6.60;;;3.58;;
71296;SDS011;59082;50.658;4.608;2023-12-07T19:25:23;5.25;;;3.70;;
71296;SDS011;59082;50.658;4.608;2023-12-07T19:27:48;8.50;;;4.33;;
71296;SDS011;59082;50.658;4.608;2023-12-07T19:30:14;7.23;;;4.33;;
71296;SDS011;59082;50.658;4.608;2023-12-07T19:32:39;5.45;;;4.18;;
71296;SDS011;59082;50.658;4.608;2023-12-07T19:35:05;12.20;;;6.53;;
71296;SDS011;59082;50.658;4.608;2023-12-07T19:37:31;12.27;;;8.38;;
71296;SDS011;59082;50.658;4.608;2023-12-07T19:39:59;8.50;;;5.53;;
71296;SDS011;59082;50.658;4.608;2023-12-07T19:42:25;6.60;;;4.38;;
71296;SDS011;59082;50.658;4.608;2023-12-07T19:44:50;10.23;;;5.87;;
71296;SDS011;59082;50.658;4.608;2023-12-07T19:47:16;7.93;;;4.13;;
71296;SDS011;59082;50.658;4.608;2023-12-07T19:49:41;6.53;;;4.50;;
71296;SDS011;59082;50.658;4.608;2023-12-07T19:52:06;8.50;;;4.83;;
71296;SDS011;59082;50.658;4.608;2023-12-07T19:54:34;8.85;;;5.80;;
71296;SDS011;59082;50.658;4.608;2023-12-07T19:57:00;6.73;;;4.43;;
71296;SDS011;59082;50.658;4.608;2023-12-07T19:59:26;10.65;;;7.00;;
71296;SDS011;59082;50.658;4.608;2023-12-07T20:01:52;10.43;;;6.23;;
71296;SDS011;59082;50.658;4.608;2023-12-07T20:04:17;5.30;;;4.25;;
71296;SDS011;59082;50.658;4.608;2023-12-07T20:06:42;3.97;;;3.40;;
71296;SDS011;59082;50.658;4.608;2023-12-07T20:09:08;4.27;;;3.80;;
71296;SDS011;59082;50.658;4.608;2023-12-07T20:11:33;7.70;;;3.70;;
71296;SDS011;59082;50.658;4.608;2023-12-07T20:13:59;4.65;;;3.55;;
71296;SDS011;59082;50.658;4.608;2023-12-07T20:16:24;5.17;;;3.63;;
71296;SDS011;59082;50.658;4.608;2023-12-07T20:18:50;6.63;;;3.40;;
71296;SDS011;59082;50.658;4.608;2023-12-07T20:21:16;4.83;;;3.77;;
71296;SDS011;59082;50.658;4.608;2023-12-07T20:23:41;6.00;;;3.30;;
71296;SDS011;59082;50.658;4.608;2023-12-07T20:26:09;4.53;;;3.28;;
71296;SDS011;59082;50.658;4.608;2023-12-07T20:28:41;5.93;;;4.50;;
71296;SDS011;59082;50.658;4.608;2023-12-07T20:31:07;7.20;;;4.30;;
71296;SDS011;59082;50.658;4.608;2023-12-07T20:33:33;10.13;;;6.00;;
71296;SDS011;59082;50.658;4.608;2023-12-07T20:35:58;8.63;;;5.10;;
71296;SDS011;59082;50.658;4.608;2023-12-07T20:38:23;9.77;;;6.47;;
71296;SDS011;59082;50.658;4.608;2023-12-07T20:40:49;10.37;;;5.07;;
71296;SDS011;59082;50.658;4.608;2023-12-07T20:43:14;7.40;;;5.13;;
71296;SDS011;59082;50.658;4.608;2023-12-07T20:45:40;6.15;;;3.75;;
71296;SDS011;59082;50.658;4.608;2023-12-07T20:48:06;7.17;;;4.57;;
71296;SDS011;59082;50.658;4.608;2023-12-07T20:50:32;4.20;;;3.45;;
71296;SDS011;59082;50.658;4.608;2023-12-07T20:52:58;5.87;;;4.03;;
71296;SDS011;59082;50.658;4.608;2023-12-07T20:55:28;4.47;;;3.67;;
71296;SDS011;59082;50.658;4.608;2023-12-07T20:57:56;7.07;;;5.45;;
71296;SDS011;59082;50.658;4.608;2023-12-07T21:00:21;4.27;;;3.33;;
71296;SDS011;59082;50.658;4.608;2023-12-07T21:02:46;6.10;;;3.87;;
71296;SDS011;59082;50.658;4.608;2023-12-07T21:05:12;6.10;;;3.03;;
71296;SDS011;59082;50.658;4.608;2023-12-07T21:07:37;5.93;;;2.92;;
71296;SDS011;59082;50.658;4.608;2023-12-07T21:10:02;4.10;;;2.53;;